Time;durP1;ratioP1;P1;durP2;ratioP2;P2;SDS_P1;SDS_P2;PMS_P1;PMS_P2;Temp;Humidity;BMP_temperature;BMP_pressure;BME280_temperature;BME280_humidity;BME280_pressure;Samples;Min_cycle;Max_cycle;Signal;HPM_P1;HPM_P2
2022/01/25 00:25:30;;;;;;;41.42;17.48;;;4.80;99.90;;;;;;5002204;28;20040;-61
2022/01/25 00:28:16;;;;;;;37.53;15.70;;;4.90;99.90;;;;;;4997440;28;20026;-62
2022/01/25 00:31:01;;;;;;;41.63;17.92;;;4.90;99.90;;;;;;5001488;28;20508;-63
2022/01/25 00:33:28;;;;;;;41.72;17.90;;;4.90;99.90;;;;;;4996905;28;20054;-62
2022/01/25 00:35:53;;;;;;;40.67;17.38;;;4.80;99.90;;;;;;5004690;28;20030;-62
2022/01/25 00:38:19;;;;;;;37.28;16.85;;;4.80;99.90;;;;;;5001433;28;20034;-62
2022/01/25 00:40:45;;;;;;;35.38;16.15;;;4.90;99.90;;;;;;5003064;28;20126;-62
2022/01/25 00:43:10;;;;;;;40.92;17.25;;;4.90;99.90;;;;;;5003477;28;20044;-63
2022/01/25 00:45:36;;;;;;;40.58;17.05;;;4.80;99.90;;;;;;4999113;28;20039;-62
2022/01/25 00:48:04;;;;;;;40.00;17.52;;;4.80;99.90;;;;;;5003331;28;20030;-62
2022/01/25 00:50:39;;;;;;;39.38;16.80;;;4.80;99.90;;;;;;5000717;28;20569;-65
2022/01/25 00:55:32;;;;;;;45.30;18.13;;;4.80;99.90;;;;;;5001612;28;20376;-62
2022/01/25 00:57:58;;;;;;;38.85;17.65;;;4.80;99.90;;;;;;5003798;28;20105;-63
2022/01/25 01:00:25;;;;;;;37.40;16.67;;;4.80;99.90;;;;;;5000180;28;20042;-63
2022/01/25 01:02:51;;;;;;;39.45;17.48;;;4.80;99.90;;;;;;5002793;28;20117;-62
2022/01/25 01:05:17;;;;;;;36.47;16.55;;;4.90;99.90;;;;;;5004089;28;20041;-63
2022/01/25 01:07:43;;;;;;;37.65;16.63;;;4.80;99.90;;;;;;5001237;28;20038;-63
2022/01/25 01:10:13;;;;;;;38.05;17.15;;;4.80;99.90;;;;;;5002413;28;20046;-62
2022/01/25 01:13:23;;;;;;;35.00;16.90;;;4.70;99.90;;;;;;5001493;28;20045;-62
2022/01/25 01:15:52;;;;;;;41.03;15.98;;;4.80;99.90;;;;;;5000116;28;20069;-62
2022/01/25 01:42:52;;;;;;;41.28;16.95;;;4.80;99.90;;;;;;5001052;28;20046;-63
2022/01/25 01:45:38;;;;;;;33.72;14.68;;;4.80;99.90;;;;;;4999917;28;20035;-61
2022/01/25 01:48:08;;;;;;;37.17;15.30;;;4.80;99.90;;;;;;4999916;28;20064;-62
2022/01/25 01:50:36;;;;;;;35.33;15.85;;;4.70;99.90;;;;;;4999170;28;20038;-62
2022/01/25 01:53:03;;;;;;;37.20;16.45;;;4.70;99.90;;;;;;5001362;28;20684;-62
2022/01/25 01:55:30;;;;;;;37.65;16.77;;;4.80;99.90;;;;;;5001771;28;20398;-63
2022/01/25 01:57:56;;;;;;;37.95;16.80;;;4.70;99.90;;;;;;5000697;28;20113;-63
2022/01/25 02:00:31;;;;;;;36.90;16.10;;;4.70;99.90;;;;;;5003277;28;20490;-61
2022/01/25 02:02:57;;;;;;;47.45;16.73;;;4.70;99.90;;;;;;4999556;28;20130;-62
2022/01/25 02:05:22;;;;;;;33.80;14.98;;;4.70;99.90;;;;;;5003225;28;20868;-63
2022/01/25 02:07:48;;;;;;;36.60;17.00;;;4.70;99.90;;;;;;4999359;28;20037;-62
2022/01/25 02:10:14;;;;;;;33.95;14.90;;;4.70;99.90;;;;;;5002428;28;20042;-61
2022/01/25 02:12:41;;;;;;;39.45;15.63;;;4.70;99.90;;;;;;4999092;28;20041;-62
2022/01/25 02:15:07;;;;;;;35.70;16.30;;;4.70;99.90;;;;;;5001866;28;20023;-61
2022/01/25 02:17:54;;;;;;;38.33;15.90;;;4.70;99.90;;;;;;4998739;28;20122;-61
2022/01/25 02:23:18;;;;;;;34.30;15.65;;;4.80;99.90;;;;;;5000098;28;20096;-62
2022/01/25 02:25:45;;;;;;;36.63;15.93;;;4.80;99.90;;;;;;5002153;28;20034;-61
2022/01/25 02:28:11;;;;;;;37.00;16.13;;;4.70;99.90;;;;;;4999539;28;20490;-62
2022/01/25 02:30:37;;;;;;;34.65;15.55;;;4.70;99.90;;;;;;5001120;28;20062;-63
2022/01/25 02:33:02;;;;;;;36.35;15.00;;;4.70;99.90;;;;;;5000778;28;20076;-63
2022/01/25 02:35:28;;;;;;;38.28;16.13;;;4.70;99.90;;;;;;5000094;28;20042;-61
2022/01/25 02:37:53;;;;;;;37.58;16.15;;;4.70;99.90;;;;;;5001444;28;20026;-62
2022/01/25 02:40:19;;;;;;;37.80;16.45;;;4.70;99.90;;;;;;4998892;28;20041;-61
2022/01/25 02:42:45;;;;;;;34.45;16.15;;;4.70;99.90;;;;;;5001835;28;20030;-63
2022/01/25 02:45:15;;;;;;;38.58;16.55;;;4.80;99.90;;;;;;4999541;28;20069;-62
2022/01/25 02:50:25;;;;;;;39.45;15.70;;;4.70;99.90;;;;;;4995262;28;20398;-61
2022/01/25 02:52:51;;;;;;;32.25;14.48;;;4.70;99.90;;;;;;4999128;28;20030;-61
2022/01/25 02:55:18;;;;;;;34.80;15.38;;;4.80;99.90;;;;;;5002224;28;20061;-62
2022/01/25 02:57:45;;;;;;;36.80;16.33;;;4.70;99.90;;;;;;4994789;28;20065;-62
2022/01/25 03:00:11;;;;;;;31.05;13.98;;;4.70;99.90;;;;;;5001567;28;20034;-63
2022/01/25 03:02:37;;;;;;;34.97;15.43;;;4.70;99.90;;;;;;4998789;28;20065;-62
2022/01/25 03:05:04;;;;;;;36.20;17.15;;;4.60;99.90;;;;;;5000346;28;20459;-61
2022/01/25 03:07:30;;;;;;;38.75;16.88;;;4.70;99.90;;;;;;4999805;28;20030;-61
2022/01/25 03:09:58;;;;;;;33.88;15.02;;;4.70;99.90;;;;;;4999329;28;20042;-61
2022/01/25 03:12:35;;;;;;;34.05;15.55;;;4.60;99.90;;;;;;5001027;28;20064;-61
2022/01/25 03:17:46;;;;;;;34.78;15.25;;;4.60;99.90;;;;;;4998379;28;20030;-62
2022/01/25 03:20:19;;;;;;;33.22;15.25;;;4.60;99.90;;;;;;4998177;28;20049;-62
2022/01/25 03:25:20;;;;;;;32.75;14.38;;;4.60;99.90;;;;;;4995174;28;20041;-62
2022/01/25 03:27:46;;;;;;;34.05;15.32;;;4.60;99.90;;;;;;5001441;28;20101;-61
2022/01/25 03:30:11;;;;;;;39.40;16.60;;;4.60;99.90;;;;;;4997914;28;20117;-62
2022/01/25 03:32:37;;;;;;;31.75;15.77;;;4.60;99.90;;;;;;5000664;28;20030;-61
2022/01/25 03:35:03;;;;;;;30.10;13.98;;;4.60;99.90;;;;;;4999384;28;20053;-60
2022/01/25 03:37:28;;;;;;;38.42;15.43;;;4.70;99.90;;;;;;4999638;28;20034;-63
2022/01/25 03:39:54;;;;;;;33.03;15.27;;;4.60;99.90;;;;;;4999967;28;20065;-61
2022/01/25 03:42:20;;;;;;;39.40;15.90;;;4.70;99.90;;;;;;5002058;28;20033;-61
2022/01/25 03:44:46;;;;;;;39.97;16.02;;;4.70;99.90;;;;;;4997643;28;20060;-63
2022/01/25 03:47:16;;;;;;;43.03;16.10;;;4.70;99.90;;;;;;5001575;28;20080;-62
2022/01/25 03:49:52;;;;;;;42.75;16.05;;;4.60;99.90;;;;;;4997903;28;20034;-62
2022/01/25 03:52:31;;;;;;;39.53;16.35;;;4.60;99.90;;;;;;4998124;28;20030;-62
2022/01/25 03:54:56;;;;;;;35.63;16.10;;;4.60;99.90;;;;;;4999522;28;20111;-62
2022/01/25 03:57:22;;;;;;;33.10;14.38;;;4.60;99.90;;;;;;4999147;28;20539;-62
2022/01/25 03:59:48;;;;;;;40.85;17.30;;;4.60;99.90;;;;;;5000201;28;20037;-63
2022/01/25 04:02:14;;;;;;;38.53;16.23;;;4.60;99.90;;;;;;4997941;28;20034;-62
2022/01/25 04:04:40;;;;;;;40.30;14.98;;;4.60;99.90;;;;;;5001092;28;20037;-62
2022/01/25 04:07:11;;;;;;;42.53;16.92;;;4.60;99.90;;;;;;4998212;28;20023;-61
2022/01/25 04:09:37;;;;;;;;;;;4.60;99.90;;;;;;5000878;28;20033;-63
2022/01/25 04:12:03;;;;;;;40.05;16.90;;;4.50;99.90;;;;;;4998511;28;20013;-61
2022/01/25 04:14:29;;;;;;;38.70;16.33;;;4.50;99.90;;;;;;4999789;28;20034;-63
2022/01/25 04:27:10;;;;;;;35.58;15.95;;;4.50;99.90;;;;;;4994730;28;20483;-62
2022/01/25 04:29:36;;;;;;;39.67;16.38;;;4.50;99.90;;;;;;5000733;28;20091;-61
2022/01/25 04:32:01;;;;;;;37.17;15.25;;;4.50;99.90;;;;;;5001234;28;20037;-61
2022/01/25 04:53:14;;;;;;;34.90;15.40;;;4.50;99.90;;;;;;5001224;28;20104;-62
2022/01/25 04:56:19;;;;;;;35.95;14.98;;;4.50;99.90;;;;;;4996342;28;20034;-61
2022/01/25 04:58:41;;;;;;;34.10;14.98;;;4.50;99.90;;;;;;4995539;28;20054;-62
2022/01/25 05:01:07;;;;;;;38.50;15.57;;;4.50;99.90;;;;;;5000522;28;20088;-61
2022/01/25 05:03:52;;;;;;;35.53;15.82;;;4.50;99.90;;;;;;5001736;28;20116;-62
2022/01/25 05:06:18;;;;;;;33.05;15.00;;;4.50;99.90;;;;;;4999891;28;20034;-61
2022/01/25 05:08:49;;;;;;;36.53;15.88;;;4.50;99.90;;;;;;5003219;28;20042;-63
2022/01/25 05:11:24;;;;;;;39.53;16.15;;;4.50;99.90;;;;;;5001018;28;20112;-62
2022/01/25 05:13:56;;;;;;;38.97;15.93;;;4.50;99.90;;;;;;5003915;28;20045;-61
2022/01/25 05:16:31;;;;;;;36.28;15.88;;;4.50;99.90;;;;;;5002412;28;20030;-62
2022/01/25 05:22:04;;;;;;;36.28;16.85;;;4.50;99.90;;;;;;5002876;28;20038;-61
2022/01/25 05:24:36;;;;;;;37.30;15.95;;;4.50;99.90;;;;;;5000800;28;20038;-62
2022/01/25 05:27:06;;;;;;;37.70;15.98;;;4.60;99.90;;;;;;5003511;28;20052;-61
2022/01/25 05:29:32;;;;;;;35.75;15.75;;;4.60;99.90;;;;;;5000099;28;20064;-62
2022/01/25 05:31:58;;;;;;;35.40;16.08;;;4.60;99.90;;;;;;4997038;28;20063;-63
2022/01/25 05:34:24;;;;;;;40.30;17.20;;;4.60;99.90;;;;;;4993981;28;20069;-61
2022/01/25 05:36:50;;;;;;;37.95;17.08;;;4.60;99.90;;;;;;4994232;28;20113;-61
2022/01/25 05:39:24;;;;;;;39.72;17.17;;;4.60;99.90;;;;;;4992828;28;20125;-61
2022/01/25 05:42:15;;;;;;;37.08;15.95;;;4.60;99.90;;;;;;4995311;28;20034;-61
2022/01/25 05:44:54;;;;;;;39.05;17.10;;;4.60;99.90;;;;;;4991983;28;20074;-61
2022/01/25 05:47:25;;;;;;;36.30;15.02;;;4.60;99.90;;;;;;4992056;28;20430;-62
2022/01/25 05:49:51;;;;;;;35.40;15.48;;;4.50;99.90;;;;;;5000509;28;20053;-62
2022/01/25 05:52:16;;;;;;;38.45;16.70;;;4.60;99.90;;;;;;5000544;28;20038;-61
2022/01/25 05:54:42;;;;;;;39.28;16.70;;;4.60;99.90;;;;;;5002341;28;20383;-61
2022/01/25 05:57:08;;;;;;;37.25;16.02;;;4.60;99.90;;;;;;4999911;28;20122;-62
2022/01/25 05:59:33;;;;;;;43.70;17.52;;;4.60;99.90;;;;;;5002828;28;20141;-64
2022/01/25 06:02:00;;;;;;;47.13;19.92;;;4.60;99.90;;;;;;4999630;28;20504;-72
2022/01/25 06:04:27;;;;;;;39.58;17.83;;;4.60;99.90;;;;;;5010538;28;20042;-66
2022/01/25 06:06:53;;;;;;;44.90;17.60;;;4.60;99.90;;;;;;4997638;28;20061;-62
2022/01/25 06:09:19;;;;;;;40.50;18.23;;;4.60;99.90;;;;;;4994519;28;20062;-63
2022/01/25 06:11:44;;;;;;;39.58;16.73;;;4.60;99.90;;;;;;4993726;28;20096;-62
2022/01/25 06:14:10;;;;;;;40.45;16.75;;;4.60;99.90;;;;;;4994836;28;20030;-64
2022/01/25 06:16:36;;;;;;;39.15;17.55;;;4.60;99.90;;;;;;4995316;28;20095;-62
2022/01/25 06:19:01;;;;;;;40.60;17.13;;;4.60;99.90;;;;;;4994223;28;20121;-63
2022/01/25 06:21:28;;;;;;;39.55;16.48;;;4.60;99.90;;;;;;4995928;28;20120;-63
2022/01/25 06:23:55;;;;;;;44.40;17.48;;;4.60;99.90;;;;;;4998008;28;20038;-62
2022/01/25 06:26:21;;;;;;;44.90;19.45;;;4.60;99.90;;;;;;4995304;28;20101;-63
2022/01/25 06:28:46;;;;;;;44.08;18.35;;;4.60;99.90;;;;;;4993440;28;20042;-62
2022/01/25 06:31:14;;;;;;;38.63;17.08;;;4.60;99.90;;;;;;4996994;28;20147;-62
2022/01/25 06:33:42;;;;;;;44.38;18.65;;;4.60;99.90;;;;;;4989255;28;20044;-61
2022/01/25 06:36:08;;;;;;;37.05;16.90;;;4.60;99.90;;;;;;4992627;28;20413;-63
2022/01/25 06:38:34;;;;;;;42.03;17.67;;;4.60;99.90;;;;;;4998753;28;20038;-61
2022/01/25 06:40:59;;;;;;;43.38;17.77;;;4.60;99.90;;;;;;4992986;28;20034;-63
2022/01/25 06:43:25;;;;;;;41.65;17.98;;;4.70;99.90;;;;;;4993398;28;20482;-63
2022/01/25 06:45:56;;;;;;;42.58;18.27;;;4.70;99.90;;;;;;4996859;28;20042;-61
2022/01/25 06:48:22;;;;;;;42.70;17.75;;;4.70;99.90;;;;;;4997787;28;20034;-61
2022/01/25 06:50:48;;;;;;;44.45;18.33;;;4.70;99.90;;;;;;4994664;28;20113;-62
2022/01/25 06:53:14;;;;;;;45.95;20.60;;;4.70;99.90;;;;;;4993535;28;20038;-62
2022/01/25 06:55:41;;;;;;;44.97;19.52;;;4.70;99.90;;;;;;4997290;28;20495;-62
2022/01/25 06:58:07;;;;;;;50.72;21.00;;;4.60;99.90;;;;;;4995497;28;20084;-62
2022/01/25 07:00:33;;;;;;;45.58;20.23;;;4.70;99.90;;;;;;4993041;28;20093;-63
2022/01/25 07:03:00;;;;;;;46.65;18.08;;;4.70;99.90;;;;;;4997327;28;20038;-62
2022/01/25 07:05:26;;;;;;;43.75;19.23;;;4.70;99.90;;;;;;4996823;28;20034;-62
2022/01/25 07:07:53;;;;;;;49.88;20.13;;;4.70;99.90;;;;;;4993040;28;20104;-61
2022/01/25 07:10:19;;;;;;;47.88;20.42;;;4.70;99.90;;;;;;4996958;28;20034;-61
2022/01/25 07:12:45;;;;;;;47.28;19.27;;;4.70;99.90;;;;;;4999518;28;20049;-62
2022/01/25 07:15:11;;;;;;;46.75;19.17;;;4.70;99.90;;;;;;4993777;28;20038;-63
2022/01/25 07:17:36;;;;;;;44.90;19.30;;;4.80;99.90;;;;;;4991627;28;20042;-61
2022/01/25 07:20:05;;;;;;;44.58;19.50;;;4.80;99.90;;;;;;4998047;28;20041;-62
2022/01/25 07:22:30;;;;;;;44.40;18.10;;;4.70;99.90;;;;;;4995308;28;20116;-62
2022/01/25 07:24:56;;;;;;;41.35;17.45;;;4.70;99.90;;;;;;4994668;28;20760;-63
2022/01/25 07:27:22;;;;;;;43.55;17.83;;;4.70;99.90;;;;;;4999127;28;20046;-62
2022/01/25 07:29:47;;;;;;;48.00;19.85;;;4.70;99.90;;;;;;4992389;28;20030;-61
2022/01/25 07:32:13;;;;;;;45.65;19.52;;;4.70;99.90;;;;;;4990301;28;20035;-62
2022/01/25 07:34:38;;;;;;;45.15;17.80;;;4.60;99.90;;;;;;4993695;28;20043;-62
2022/01/25 07:37:04;;;;;;;45.88;18.95;;;4.60;99.90;;;;;;4991192;28;20054;-61
2022/01/25 07:39:30;;;;;;;43.83;18.70;;;4.60;99.90;;;;;;4991012;28;20122;-62
2022/01/25 07:41:58;;;;;;;47.22;20.83;;;4.60;99.90;;;;;;4998221;28;20041;-62
2022/01/25 07:44:28;;;;;;;56.85;21.73;;;4.60;99.90;;;;;;4997525;28;20485;-64
2022/01/25 07:46:57;;;;;;;48.10;19.63;;;4.60;99.90;;;;;;4994951;28;20034;-61
2022/01/25 07:49:26;;;;;;;50.88;21.50;;;4.60;99.90;;;;;;4993707;28;20736;-62
2022/01/25 07:51:52;;;;;;;50.03;20.17;;;4.60;99.90;;;;;;4997081;28;20046;-62
2022/01/25 07:54:18;;;;;;;51.35;20.35;;;4.70;99.90;;;;;;4996408;28;20033;-60
2022/01/25 07:56:43;;;;;;;49.97;20.58;;;4.70;99.90;;;;;;4992053;28;20517;-62
2022/01/25 07:59:09;;;;;;;57.30;21.23;;;4.70;99.90;;;;;;4994528;28;20039;-62
2022/01/25 08:01:34;;;;;;;50.08;21.63;;;4.70;99.90;;;;;;4995518;28;20045;-62
2022/01/25 08:04:00;;;;;;;53.70;20.10;;;4.70;99.90;;;;;;4993592;28;20104;-62
2022/01/25 08:06:26;;;;;;;53.92;20.88;;;4.70;99.90;;;;;;4992976;28;20060;-64
2022/01/25 08:08:52;;;;;;;55.25;21.77;;;4.70;99.90;;;;;;4994339;28;20034;-62
2022/01/25 08:11:19;;;;;;;50.08;21.42;;;4.70;99.90;;;;;;4994468;28;20092;-63
2022/01/25 08:13:48;;;;;;;49.33;19.88;;;4.70;99.90;;;;;;4996120;28;20666;-62
2022/01/25 08:16:15;;;;;;;52.85;21.67;;;4.70;99.90;;;;;;5001751;28;20042;-62
2022/01/25 08:18:41;;;;;;;51.33;19.00;;;4.70;99.90;;;;;;4996299;28;20126;-62
2022/01/25 08:21:06;;;;;;;53.50;20.83;;;4.70;99.90;;;;;;4996066;28;20117;-62
2022/01/25 08:23:32;;;;;;;49.72;21.48;;;4.70;99.90;;;;;;5002828;28;20425;-62
2022/01/25 08:25:58;;;;;;;47.60;19.55;;;4.70;99.90;;;;;;4997698;28;20037;-62
2022/01/25 08:28:23;;;;;;;51.85;21.95;;;4.70;99.90;;;;;;4998358;28;20038;-63
2022/01/25 08:30:49;;;;;;;53.67;21.08;;;4.70;99.90;;;;;;4999009;28;20022;-62
2022/01/25 08:33:15;;;;;;;54.20;22.40;;;4.70;99.90;;;;;;5000872;28;20065;-61
2022/01/25 08:35:40;;;;;;;59.22;23.17;;;4.70;99.90;;;;;;4993382;28;20046;-63
2022/01/25 08:38:06;;;;;;;47.03;19.33;;;4.70;99.90;;;;;;4998104;28;20515;-62
2022/01/25 08:40:33;;;;;;;53.70;20.50;;;4.80;99.90;;;;;;4993492;28;20089;-62
2022/01/25 08:42:59;;;;;;;49.17;19.63;;;4.80;99.90;;;;;;4998301;28;20038;-62
2022/01/25 08:45:25;;;;;;;55.47;21.30;;;4.80;99.90;;;;;;4996227;28;20030;-64
2022/01/25 08:47:51;;;;;;;60.15;21.25;;;4.80;99.90;;;;;;4993964;28;20043;-62
2022/01/25 08:50:17;;;;;;;51.38;21.35;;;4.80;99.90;;;;;;4994361;28;20026;-62
2022/01/25 08:52:42;;;;;;;48.78;20.75;;;4.80;99.90;;;;;;4993682;28;20121;-63
2022/01/25 08:55:08;;;;;;;56.67;22.38;;;4.80;99.90;;;;;;4999800;28;20058;-62
2022/01/25 08:57:34;;;;;;;59.15;22.60;;;4.80;99.90;;;;;;4999818;28;20120;-63
2022/01/25 09:00:00;;;;;;;51.40;19.80;;;4.80;99.90;;;;;;4995704;28;20487;-62
2022/01/25 09:02:25;;;;;;;52.60;21.23;;;4.90;99.90;;;;;;4999015;28;20027;-63
2022/01/25 09:04:51;;;;;;;66.18;23.48;;;4.80;99.90;;;;;;4996814;28;20605;-61
2022/01/25 09:07:17;;;;;;;60.15;24.25;;;4.90;99.90;;;;;;4998461;28;20041;-61
2022/01/25 09:09:42;;;;;;;56.55;20.90;;;4.80;99.90;;;;;;4995030;28;20125;-63
2022/01/25 09:12:09;;;;;;;53.85;22.13;;;4.80;99.90;;;;;;4996206;28;20379;-61
2022/01/25 09:14:35;;;;;;;56.05;23.15;;;4.80;99.90;;;;;;4994790;28;20030;-62
2022/01/25 09:17:01;;;;;;;51.78;19.65;;;4.80;99.90;;;;;;5013956;28;20049;-62
2022/01/25 09:19:26;;;;;;;55.90;22.17;;;4.80;99.90;;;;;;5000645;28;20157;-62
2022/01/25 09:21:52;;;;;;;57.15;22.60;;;4.90;99.90;;;;;;4997158;28;20402;-63
2022/01/25 09:24:18;;;;;;;58.05;22.27;;;4.90;99.90;;;;;;4996130;28;20069;-62
2022/01/25 09:26:43;;;;;;;58.10;23.85;;;5.00;99.90;;;;;;4996967;28;20042;-62
2022/01/25 09:29:09;;;;;;;54.15;21.98;;;5.00;99.90;;;;;;4999769;28;20047;-62
2022/01/25 09:31:34;;;;;;;65.22;22.15;;;4.90;99.90;;;;;;4995717;28;20054;-64
2022/01/25 09:34:00;;;;;;;58.72;22.38;;;4.80;99.90;;;;;;4996427;28;20034;-63
2022/01/25 09:36:26;;;;;;;55.40;21.77;;;4.80;99.90;;;;;;4998789;28;20029;-63
2022/01/25 09:38:53;;;;;;;58.20;21.63;;;4.80;99.90;;;;;;4996592;28;20652;-62
2022/01/25 09:41:19;;;;;;;56.05;21.52;;;4.80;99.90;;;;;;4994499;28;20132;-63
2022/01/25 09:43:44;;;;;;;59.80;22.42;;;4.80;99.90;;;;;;4998892;28;20573;-62
2022/01/25 09:46:10;;;;;;;57.67;21.20;;;4.90;99.90;;;;;;5000249;28;20046;-61
2022/01/25 09:48:36;;;;;;;55.45;21.58;;;4.90;99.90;;;;;;4992995;28;20065;-64
2022/01/25 09:51:03;;;;;;;60.80;22.73;;;4.90;99.90;;;;;;4997451;28;20494;-62
2022/01/25 09:53:29;;;;;;;57.78;21.90;;;4.90;99.90;;;;;;4997560;28;20046;-62
2022/01/25 09:55:56;;;;;;;49.65;20.70;;;4.80;99.90;;;;;;4997542;28;20750;-61
2022/01/25 09:58:21;;;;;;;52.47;21.67;;;4.90;99.90;;;;;;4995122;28;20035;-62
2022/01/25 10:00:48;;;;;;;58.75;22.73;;;4.90;99.90;;;;;;4999450;28;20034;-62
2022/01/25 10:05:47;;;;;;;52.60;21.02;;;4.90;99.90;;;;;;4993684;28;20128;-62
2022/01/25 10:08:21;;;;;;;54.22;20.60;;;5.00;99.90;;;;;;4996723;28;20034;-62
2022/01/25 10:11:02;;;;;;;52.28;21.50;;;5.00;99.90;;;;;;4998846;28;20120;-64
2022/01/25 10:13:30;;;;;;;;;;;5.00;99.90;;;;;;4993640;28;20076;-62
2022/01/25 10:16:08;;;;;;;56.67;22.45;;;5.00;99.90;;;;;;4994675;28;19921;-62
2022/01/25 10:18:38;;;;;;;56.25;22.83;;;5.00;99.90;;;;;;4996344;28;20185;-62
2022/01/25 10:21:10;;;;;;;50.40;20.50;;;5.10;99.90;;;;;;5000807;28;20112;-62
2022/01/25 10:23:36;;;;;;;56.78;23.02;;;5.00;99.90;;;;;;4996698;28;20046;-62
2022/01/25 10:26:03;;;;;;;56.72;22.13;;;5.10;99.90;;;;;;4993987;28;20395;-62
2022/01/25 10:28:30;;;;;;;53.85;21.05;;;5.10;99.90;;;;;;4999466;28;20041;-63
2022/01/25 10:31:06;;;;;;;56.03;21.90;;;5.00;99.90;;;;;;4995722;28;20490;-62
2022/01/25 10:33:43;;;;;;;60.25;22.55;;;5.00;99.90;;;;;;4996166;28;20039;-64
2022/01/25 10:36:16;;;;;;;60.40;22.27;;;4.90;99.90;;;;;;4994749;28;20026;-62
2022/01/25 10:38:44;;;;;;;62.38;23.95;;;4.90;99.90;;;;;;5000636;28;20042;-63
2022/01/25 10:41:22;;;;;;;53.53;20.75;;;4.90;99.90;;;;;;4995826;28;20053;-62
2022/01/25 10:43:49;;;;;;;48.90;20.17;;;4.90;99.90;;;;;;4992513;28;20034;-62
2022/01/25 10:46:16;;;;;;;55.70;21.92;;;4.90;99.90;;;;;;4998251;28;20556;-62
2022/01/25 10:48:49;;;;;;;54.92;22.88;;;4.90;99.90;;;;;;4995175;28;20064;-62
2022/01/25 10:51:21;;;;;;;51.67;21.23;;;4.90;99.90;;;;;;4995660;28;20125;-61
2022/01/25 10:54:22;;;;;;;59.25;21.67;;;4.90;99.90;;;;;;4991115;28;20054;-62
2022/01/25 10:56:54;;;;;;;59.53;22.55;;;5.00;99.90;;;;;;5000591;28;20034;-62
2022/01/25 10:59:29;;;;;;;54.58;21.92;;;5.00;99.90;;;;;;4995696;28;20033;-61
2022/01/25 11:01:57;;;;;;;51.78;20.35;;;5.00;99.90;;;;;;4995218;28;20061;-62
2022/01/25 11:04:29;;;;;;;67.47;22.65;;;5.00;99.90;;;;;;4993718;28;20037;-63
2022/01/25 11:07:04;;;;;;;54.75;21.42;;;5.00;99.90;;;;;;4990425;28;20056;-63
2022/01/25 11:09:38;;;;;;;57.80;21.23;;;5.00;99.90;;;;;;4993754;28;20038;-62
2022/01/25 11:12:07;;;;;;;56.53;22.23;;;5.00;99.90;;;;;;4992544;28;20038;-63
2022/01/25 11:17:26;;;;;;;61.88;22.67;;;5.00;99.90;;;;;;4993079;28;20115;-62
2022/01/25 11:19:53;;;;;;;56.08;22.15;;;5.00;99.90;;;;;;4994974;28;20049;-62
2022/01/25 11:22:21;;;;;;;59.10;23.60;;;5.00;99.90;;;;;;4989451;28;20038;-61
2022/01/25 11:25:22;;;;;;;52.63;19.98;;;5.10;99.90;;;;;;4997522;28;20058;-62
2022/01/25 11:27:49;;;;;;;55.70;21.60;;;5.00;99.90;;;;;;5009455;28;20040;-63
2022/01/25 11:30:18;;;;;;;49.72;20.50;;;5.00;99.90;;;;;;4995655;28;20037;-62
2022/01/25 11:32:46;;;;;;;55.75;21.48;;;5.00;99.90;;;;;;4993202;28;20042;-62
2022/01/25 11:35:15;;;;;;;63.25;21.25;;;5.00;99.90;;;;;;4997278;28;20092;-62
2022/01/25 11:37:46;;;;;;;56.58;21.60;;;5.00;99.90;;;;;;4992260;28;20038;-63
2022/01/25 11:40:20;;;;;;;51.95;20.23;;;5.00;99.90;;;;;;4994532;28;20033;-62
2022/01/25 11:42:48;;;;;;;63.67;23.00;;;5.00;99.90;;;;;;4997816;28;20096;-64
2022/01/25 11:45:14;;;;;;;49.60;20.58;;;4.90;99.90;;;;;;4993230;28;20054;-62
2022/01/25 11:47:40;;;;;;;67.28;24.55;;;5.00;99.90;;;;;;4990724;28;20068;-62
2022/01/25 11:50:08;;;;;;;54.67;21.48;;;4.90;99.90;;;;;;4992384;28;20033;-63
2022/01/25 11:52:34;;;;;;;54.97;20.92;;;4.90;99.90;;;;;;4995511;28;20038;-63
2022/01/25 11:55:22;;;;;;;53.92;21.85;;;4.90;99.90;;;;;;4994692;28;20035;-61
2022/01/25 11:57:52;;;;;;;59.15;23.27;;;4.90;99.90;;;;;;4988446;28;20034;-62
2022/01/25 12:00:21;;;;;;;54.88;20.17;;;4.90;99.90;;;;;;4985375;28;20023;-61
2022/01/25 12:02:50;;;;;;;55.25;21.90;;;4.90;99.90;;;;;;4994898;28;20030;-62
2022/01/25 12:05:24;;;;;;;49.50;19.77;;;5.00;99.90;;;;;;4991102;28;20049;-63
2022/01/25 12:08:08;;;;;;;55.90;21.35;;;5.00;99.90;;;;;;4990940;28;20439;-64
2022/01/25 12:10:43;;;;;;;52.30;20.40;;;5.00;99.90;;;;;;4992257;28;20038;-62
2022/01/25 12:13:11;;;;;;;59.25;20.85;;;4.90;99.90;;;;;;4995495;28;20100;-62
2022/01/25 12:15:37;;;;;;;59.53;21.85;;;4.90;99.90;;;;;;4994213;28;20091;-62
2022/01/25 12:18:03;;;;;;;54.47;21.60;;;4.90;99.90;;;;;;4994433;28;20038;-62
2022/01/25 12:20:29;;;;;;;54.30;20.92;;;4.90;99.90;;;;;;4995413;28;20450;-63
2022/01/25 12:23:18;;;;;;;55.00;20.58;;;5.00;99.90;;;;;;4998051;28;20030;-61
2022/01/25 12:26:07;;;;;;;57.60;21.65;;;5.00;99.90;;;;;;4994933;28;20128;-61
2022/01/25 12:28:37;;;;;;;60.28;23.55;;;4.90;99.90;;;;;;4993907;28;20064;-63
2022/01/25 12:31:14;;;;;;;53.65;21.45;;;4.90;99.90;;;;;;4997959;28;20084;-62
2022/01/25 12:33:40;;;;;;;52.42;19.88;;;5.00;99.90;;;;;;4994714;28;20066;-62
2022/01/25 12:36:08;;;;;;;55.85;21.25;;;5.00;99.90;;;;;;4996724;28;20512;-61
2022/01/25 12:38:47;;;;;;;56.83;21.95;;;5.00;99.90;;;;;;4992952;28;20062;-62
2022/01/25 12:41:20;;;;;;;57.30;22.08;;;5.00;99.90;;;;;;4994812;28;21883;-62
2022/01/25 12:43:50;;;;;;;56.88;20.85;;;5.00;99.90;;;;;;4994995;28;20470;-62
2022/01/25 12:46:19;;;;;;;54.63;20.80;;;5.00;99.90;;;;;;4993772;28;20044;-62
2022/01/25 12:48:47;;;;;;;58.47;20.90;;;4.90;99.90;;;;;;4994203;28;20035;-60
2022/01/25 12:51:21;;;;;;;57.05;20.05;;;4.90;99.90;;;;;;4995787;28;20038;-62
2022/01/25 12:53:49;;;;;;;53.53;21.10;;;5.00;99.90;;;;;;4992930;28;20505;-62
2022/01/25 12:56:19;;;;;;;54.20;20.58;;;5.00;99.90;;;;;;4991512;28;20070;-62
2022/01/25 12:58:46;;;;;;;54.45;20.25;;;5.00;99.90;;;;;;4999046;28;20049;-64
2022/01/25 13:01:15;;;;;;;59.85;21.73;;;5.00;99.90;;;;;;4995603;28;20061;-62
2022/01/25 13:03:44;;;;;;;49.78;19.27;;;5.00;99.90;;;;;;4997014;28;20029;-64
2022/01/25 13:06:17;;;;;;;54.40;19.90;;;5.00;99.90;;;;;;4998519;28;20062;-62
2022/01/25 13:11:47;;;;;;;49.95;20.35;;;5.00;99.90;;;;;;4996490;28;20113;-62
2022/01/25 13:16:46;;;;;;;54.92;20.58;;;5.00;99.90;;;;;;4996448;28;20081;-66
2022/01/25 13:19:13;;;;;;;56.03;20.67;;;5.10;99.90;;;;;;4997015;28;20153;-63
2022/01/25 13:21:51;;;;;;;59.88;20.00;;;5.00;99.90;;;;;;4996268;28;20057;-63
2022/01/25 13:24:19;;;;;;;53.65;20.77;;;5.20;99.90;;;;;;4994560;28;20658;-62
2022/01/25 13:26:53;;;;;;;51.08;19.38;;;5.10;99.90;;;;;;4996825;28;20050;-62
2022/01/25 13:32:11;;;;;;;55.50;19.20;;;5.20;99.90;;;;;;4994883;28;20041;-64
2022/01/25 13:34:37;;;;;;;58.92;19.27;;;5.20;99.90;;;;;;4992960;28;20030;-64
2022/01/25 13:37:02;;;;;;;56.40;20.45;;;5.10;99.90;;;;;;4995922;28;20501;-62
2022/01/25 13:39:29;;;;;;;52.60;18.80;;;5.10;99.90;;;;;;4995501;28;20082;-62
2022/01/25 13:42:03;;;;;;;51.45;19.00;;;5.10;99.90;;;;;;5000981;28;20030;-62
2022/01/25 13:47:13;;;;;;;55.28;20.05;;;5.00;99.90;;;;;;4998246;28;20030;-63
2022/01/25 13:49:40;;;;;;;53.20;20.35;;;5.10;99.90;;;;;;4998235;28;20038;-63
2022/01/25 13:52:06;;;;;;;64.10;20.45;;;5.10;99.90;;;;;;4999651;28;20033;-63
2022/01/25 13:54:31;;;;;;;55.55;20.27;;;5.10;99.90;;;;;;4997959;28;20038;-64
2022/01/25 13:57:05;;;;;;;49.60;19.05;;;5.10;99.90;;;;;;5003335;28;20030;-64
2022/01/25 13:59:31;;;;;;;58.55;21.70;;;5.10;99.90;;;;;;4995110;28;20045;-63
2022/01/25 14:01:57;;;;;;;51.40;19.98;;;5.10;99.90;;;;;;4996946;28;20398;-64
2022/01/25 14:04:28;;;;;;;58.03;20.02;;;5.00;99.90;;;;;;4996644;28;20042;-63
2022/01/25 14:06:59;;;;;;;56.13;20.88;;;5.00;99.90;;;;;;5001546;28;20132;-67
2022/01/25 14:09:33;;;;;;;55.63;19.90;;;5.10;99.90;;;;;;4994719;28;20613;-63
2022/01/25 14:23:21;;;;;;;52.92;19.40;;;5.10;99.90;;;;;;4996873;28;20133;-62
2022/01/25 14:25:47;;;;;;;53.60;21.13;;;5.10;99.90;;;;;;4997181;28;20038;-64
2022/01/25 14:28:24;;;;;;;57.80;21.15;;;5.00;99.90;;;;;;5001799;28;20796;-63
2022/01/25 14:30:56;;;;;;;58.15;19.58;;;5.00;99.90;;;;;;5001316;28;20035;-66
2022/01/25 14:33:27;;;;;;;60.78;21.80;;;4.90;99.90;;;;;;5001508;28;20113;-64
2022/01/25 14:36:04;;;;;;;49.30;19.48;;;4.90;99.90;;;;;;4992012;28;20030;-65
2022/01/25 14:38:35;;;;;;;56.45;20.20;;;4.90;99.90;;;;;;4995210;28;20078;-64
2022/01/25 14:41:08;;;;;;;55.97;20.45;;;4.90;99.90;;;;;;4994688;28;20035;-61
2022/01/25 14:43:35;;;;;;;55.90;21.70;;;4.80;99.90;;;;;;5002935;28;20034;-61
2022/01/25 14:46:09;;;;;;;60.85;21.83;;;4.90;99.90;;;;;;5002604;28;20041;-62
2022/01/25 14:48:38;;;;;;;51.38;19.90;;;4.80;99.90;;;;;;4991303;28;20041;-62